createdAt,value
2023-05-25T00:00:53.508Z,9.525
2023-05-25T00:01:43.506Z,9.536
2023-05-25T00:02:41.155Z,9.537
2023-05-25T00:03:41.078Z,9.563
2023-05-25T00:04:40.639Z,9.579
2023-05-25T00:05:41.466Z,9.552
2023-05-25T00:06:41.288Z,9.524
2023-05-25T00:07:41.258Z,9.472
2023-05-25T00:08:40.751Z,9.425
2023-05-25T00:09:41.440Z,9.435
2023-05-25T00:10:40.926Z,9.455
2023-05-25T00:11:41.362Z,9.456
2023-05-25T00:12:40.910Z,9.461
2023-05-25T00:13:41.282Z,9.447
2023-05-25T00:14:40.762Z,9.415
2023-05-25T00:15:41.834Z,9.366
2023-05-25T00:16:41.175Z,9.312
2023-05-25T00:17:41.472Z,9.324
2023-05-25T00:18:41.818Z,9.324
2023-05-25T00:19:41.480Z,9.319
2023-05-25T00:20:41.519Z,9.331
2023-05-25T00:21:41.262Z,9.331
2023-05-25T00:22:41.014Z,9.338
2023-05-25T00:23:41.069Z,9.326
2023-05-25T00:24:41.292Z,9.292
2023-05-25T00:25:41.337Z,9.267
2023-05-25T00:26:41.121Z,9.232
2023-05-25T00:27:40.490Z,9.154
2023-05-25T00:28:40.815Z,9.131
2023-05-25T00:29:41.586Z,9.130
2023-05-25T00:30:41.580Z,9.118
2023-05-25T00:31:41.047Z,9.101
2023-05-25T00:32:40.685Z,9.064
2023-05-25T00:33:41.357Z,9.045
2023-05-25T00:34:40.841Z,9.055
2023-05-25T00:35:41.487Z,9.031
2023-05-25T00:36:41.266Z,8.996
2023-05-25T00:37:40.856Z,9.021
2023-05-25T00:38:41.240Z,9.001
2023-05-25T00:39:40.916Z,9.023
2023-05-25T00:40:41.480Z,9.050
2023-05-25T00:41:40.717Z,9.091
2023-05-25T00:42:41.140Z,9.074
2023-05-25T00:43:40.808Z,9.051
2023-05-25T00:44:41.526Z,9.043
2023-05-25T00:45:41.743Z,9.031
2023-05-25T00:46:41.186Z,9.041
2023-05-25T00:47:41.018Z,9.026
2023-05-25T00:48:40.772Z,9.038
2023-05-25T00:49:41.190Z,9.031
2023-05-25T00:50:40.886Z,9.074
2023-05-25T00:51:41.281Z,9.064
2023-05-25T00:52:40.815Z,9.043
2023-05-25T00:53:41.423Z,9.039
2023-05-25T00:54:41.097Z,9.016
2023-05-25T00:55:40.849Z,9.006
2023-05-25T00:56:41.298Z,9.015
2023-05-25T00:57:40.905Z,9.013
2023-05-25T00:58:41.100Z,9
2023-05-25T00:59:40.982Z,9
2023-05-25T01:00:41.547Z,9
2023-05-25T01:01:41.035Z,9.011
2023-05-25T01:02:40.426Z,9.034
2023-05-25T01:03:41.229Z,9.003
2023-05-25T01:04:40.776Z,8.991
2023-05-25T01:05:41.401Z,8.984
2023-05-25T01:06:40.821Z,8.978
2023-05-25T01:07:41.365Z,8.913
2023-05-25T01:08:41.109Z,8.886
2023-05-25T01:09:40.302Z,8.851
2023-05-25T01:10:41.102Z,8.831
2023-05-25T01:11:40.518Z,8.808
2023-05-25T01:12:41.011Z,8.795
2023-05-25T01:13:40.637Z,8.798
2023-05-25T01:14:41.110Z,8.814
2023-05-25T01:15:41.033Z,8.824
2023-05-25T01:16:40.917Z,8.810
2023-05-25T01:17:40.720Z,8.789
2023-05-25T01:18:41.164Z,8.746
2023-05-25T01:19:41.004Z,8.768
2023-05-25T01:20:40.633Z,8.765
2023-05-25T01:21:41.030Z,8.733
2023-05-25T01:22:40.701Z,8.686
2023-05-25T01:23:41.109Z,8.663
2023-05-25T01:24:40.740Z,8.621
2023-05-25T01:25:41.237Z,8.633
2023-05-25T01:26:40.450Z,8.604
2023-05-25T01:27:40.744Z,8.604
2023-05-25T01:28:41.465Z,8.611
2023-05-25T01:29:40.813Z,8.595
2023-05-25T01:30:41.401Z,8.564
2023-05-25T01:31:41.049Z,8.545
2023-05-25T01:32:40.857Z,8.527
2023-05-25T01:33:41.259Z,8.555
2023-05-25T01:34:40.617Z,8.513
2023-05-25T01:35:41.811Z,8.460
2023-05-25T01:36:41.757Z,8.456
2023-05-25T01:37:40.976Z,8.475
2023-05-25T01:38:40.860Z,8.472
2023-05-25T01:39:41.852Z,8.406
2023-05-25T01:40:41.611Z,8.404
2023-05-25T01:41:41.475Z,8.366
2023-05-25T01:42:40.954Z,8.367
2023-05-25T01:43:41.482Z,8.390
2023-05-25T01:44:40.832Z,8.394
2023-05-25T01:45:42.270Z,8.402
2023-05-25T01:46:41.032Z,8.398
2023-05-25T01:47:40.918Z,8.395
2023-05-25T01:48:41.436Z,8.424
2023-05-25T01:49:40.994Z,8.425
2023-05-25T01:50:40.784Z,8.414
2023-05-25T01:51:41.180Z,8.411
2023-05-25T01:52:41.025Z,8.385
2023-05-25T01:53:40.794Z,8.383
2023-05-25T01:54:41.246Z,8.361
2023-05-25T01:55:40.785Z,8.359
2023-05-25T01:56:40.917Z,8.350
2023-05-25T01:57:41.434Z,8.345
2023-05-25T01:58:40.722Z,8.338
2023-05-25T01:59:41.468Z,8.336
2023-05-25T02:00:42.062Z,8.341
2023-05-25T02:01:40.905Z,8.338
2023-05-25T02:02:41.640Z,8.336
2023-05-25T02:03:41.033Z,8.350
2023-05-25T02:04:40.771Z,8.331
2023-05-25T02:05:41.968Z,8.306
2023-05-25T02:06:40.677Z,8.319
2023-05-25T02:07:40.893Z,8.319
2023-05-25T02:08:41.294Z,8.301
2023-05-25T02:09:40.746Z,8.293
2023-05-25T02:10:41.265Z,8.255
2023-05-25T02:11:40.628Z,8.233
2023-05-25T02:12:41.284Z,8.199
2023-05-25T02:13:40.875Z,8.206
2023-05-25T02:14:41.049Z,8.208
2023-05-25T02:15:41.128Z,8.180
2023-05-25T02:16:40.728Z,8.191
2023-05-25T02:17:41.368Z,8.146
2023-05-25T02:18:40.790Z,8.090
2023-05-25T02:19:40.767Z,8.109
2023-05-25T02:20:41.577Z,8.111
2023-05-25T02:21:40.917Z,8.131
2023-05-25T02:22:41.454Z,8.125
2023-05-25T02:23:40.730Z,8.090
2023-05-25T02:24:41.566Z,8.088
2023-05-25T02:25:41.238Z,8.100
2023-05-25T02:26:40.859Z,8.103
2023-05-25T02:27:41.323Z,8.045
2023-05-25T02:28:40.627Z,8.043
2023-05-25T02:29:41.087Z,8.046
2023-05-25T02:30:40.798Z,8.068
2023-05-25T02:31:41.504Z,8.026
2023-05-25T02:32:40.927Z,8.021
2023-05-25T02:33:41.247Z,8.003
2023-05-25T02:34:40.829Z,8.008
2023-05-25T02:35:41.239Z,8.028
2023-05-25T02:36:40.811Z,8.046
2023-05-25T02:37:41.110Z,8.031
2023-05-25T02:38:40.588Z,8.003
2023-05-25T02:39:41.258Z,8
2023-05-25T02:40:40.634Z,7.993
2023-05-25T02:41:41.136Z,7.973
2023-05-25T02:42:40.712Z,7.933
2023-05-25T02:43:40.908Z,7.925
2023-05-25T02:44:41.453Z,7.916
2023-05-25T02:45:41.103Z,7.914
2023-05-25T02:46:40.703Z,7.891
2023-05-25T02:47:41.794Z,7.853
2023-05-25T02:48:41.191Z,7.868
2023-05-25T02:49:40.442Z,7.868
2023-05-25T02:50:40.893Z,7.891
2023-05-25T02:51:41.098Z,7.900
2023-05-25T02:52:40.495Z,7.898
2023-05-25T02:53:40.858Z,7.901
2023-05-25T02:54:41.231Z,7.901
2023-05-25T02:55:40.822Z,7.894
2023-05-25T02:56:41.040Z,7.878
2023-05-25T02:57:40.605Z,7.880
2023-05-25T02:58:41.174Z,7.878
2023-05-25T02:59:41.109Z,7.878
2023-05-25T03:00:41.594Z,7.864
2023-05-25T03:01:41.641Z,7.871
2023-05-25T03:02:42.110Z,7.901
2023-05-25T03:03:40.988Z,7.923
2023-05-25T03:04:40.880Z,7.905
2023-05-25T03:05:41.765Z,7.894
2023-05-25T03:06:41.305Z,7.906
2023-05-25T03:07:40.731Z,7.892
2023-05-25T03:08:41.289Z,7.865
2023-05-25T03:09:41.529Z,7.848
2023-05-25T03:10:41.612Z,7.831
2023-05-25T03:11:41.270Z,7.822
2023-05-25T03:12:40.863Z,7.775
2023-05-25T03:13:41.402Z,7.745
2023-05-25T03:14:40.876Z,7.704
2023-05-25T03:15:41.440Z,7.650
2023-05-25T03:16:40.729Z,7.601
2023-05-25T03:17:41.563Z,7.610
2023-05-25T03:18:41.118Z,7.618
2023-05-25T03:19:40.535Z,7.645
2023-05-25T03:20:41.044Z,7.697
2023-05-25T03:21:40.346Z,7.690
2023-05-25T03:22:41.152Z,7.684
2023-05-25T03:23:40.643Z,7.696
2023-05-25T03:24:41.045Z,7.706
2023-05-25T03:25:40.504Z,7.633
2023-05-25T03:26:40.905Z,7.601
2023-05-25T03:27:40.978Z,7.596
2023-05-25T03:28:40.364Z,7.568
2023-05-25T03:29:40.681Z,7.556
2023-05-25T03:30:41.404Z,7.566
2023-05-25T03:31:41.043Z,7.605
2023-05-25T03:32:41.108Z,7.617
2023-05-25T03:33:41.074Z,7.650
2023-05-25T03:34:41.052Z,7.621
2023-05-25T03:35:40.969Z,7.616
2023-05-25T03:36:40.854Z,7.606
2023-05-25T03:37:41.383Z,7.571
2023-05-25T03:38:40.997Z,7.561
2023-05-25T03:39:41.102Z,7.539
2023-05-25T03:40:40.973Z,7.501
2023-05-25T03:41:41.765Z,7.526
2023-05-25T03:42:41.849Z,7.506
2023-05-25T03:43:41.431Z,7.501
2023-05-25T03:44:41.366Z,7.531
2023-05-25T03:45:41.781Z,7.539
2023-05-25T03:46:41.824Z,7.545
2023-05-25T03:47:41.619Z,7.559
2023-05-25T03:48:41.468Z,7.548
2023-05-25T03:49:41.077Z,7.514
2023-05-25T03:50:40.880Z,7.501
2023-05-25T03:51:41.561Z,7.5
2023-05-25T03:52:41.888Z,7.518
2023-05-25T03:53:41.486Z,7.536
2023-05-25T03:54:41.136Z,7.523
2023-05-25T03:55:41.190Z,7.506
2023-05-25T03:56:40.966Z,7.493
2023-05-25T03:57:40.869Z,7.463
2023-05-25T03:58:41.377Z,7.451
2023-05-25T03:59:41.237Z,7.433
2023-05-25T04:00:41.825Z,7.406
2023-05-25T04:01:41.528Z,7.408
2023-05-25T04:02:41.284Z,7.434
2023-05-25T04:03:41.360Z,7.458
2023-05-25T04:04:41.697Z,7.491
2023-05-25T04:05:41.976Z,7.503
2023-05-25T04:06:40.594Z,7.525
2023-05-25T04:07:41.214Z,7.518
2023-05-25T04:08:41.004Z,7.491
2023-05-25T04:09:41.165Z,7.465
2023-05-25T04:10:40.808Z,7.466
2023-05-25T04:11:41.122Z,7.466
2023-05-25T04:12:40.594Z,7.465
2023-05-25T04:13:41.890Z,7.481
2023-05-25T04:14:42.033Z,7.469
2023-05-25T04:15:41.927Z,7.474
2023-05-25T04:16:41.539Z,7.483
2023-05-25T04:17:41.857Z,7.508
2023-05-25T04:18:41.946Z,7.528
2023-05-25T04:19:41.220Z,7.550
2023-05-25T04:20:40.932Z,7.546
2023-05-25T04:21:40.881Z,7.553
2023-05-25T04:22:41.628Z,7.576
2023-05-25T04:23:41.046Z,7.583
2023-05-25T04:24:40.748Z,7.618
2023-05-25T04:25:45.300Z,7.653
2023-05-25T04:26:41.012Z,7.678
2023-05-25T04:27:40.447Z,7.708
2023-05-25T04:28:41.440Z,7.731
2023-05-25T04:29:40.993Z,7.761
2023-05-25T04:30:41.118Z,7.775
2023-05-25T04:31:40.572Z,7.775
2023-05-25T04:32:43.923Z,7.775
2023-05-25T04:33:41.149Z,7.773
2023-05-25T04:34:41.202Z,7.798
2023-05-25T04:35:41.132Z,7.811
2023-05-25T04:36:41.344Z,7.813
2023-05-25T04:37:41.287Z,7.820
2023-05-25T04:38:41.337Z,7.818
2023-05-25T04:39:41.701Z,7.820
2023-05-25T04:40:41.968Z,7.845
2023-05-25T04:41:41.612Z,7.861
2023-05-25T04:42:41.670Z,7.884
2023-05-25T04:43:49.621Z,7.883
2023-05-25T04:44:41.278Z,7.898
2023-05-25T04:45:41.510Z,7.912
2023-05-25T04:46:41.289Z,7.952
2023-05-25T04:47:41.542Z,7.980
2023-05-25T04:48:41.316Z,8.007
2023-05-25T04:49:41.306Z,8.043
2023-05-25T04:50:41.077Z,8.078
2023-05-25T04:51:41.344Z,8.093
2023-05-25T04:52:41.306Z,8.111
2023-05-25T04:53:41.168Z,8.128
2023-05-25T04:54:40.751Z,8.145
2023-05-25T04:55:41.824Z,8.168
2023-05-25T04:56:41.428Z,8.229
2023-05-25T04:57:41.245Z,8.260
2023-05-25T04:58:40.875Z,8.284
2023-05-25T04:59:41.781Z,8.274
2023-05-25T05:00:42.729Z,8.271
2023-05-25T05:01:41.810Z,8.300
2023-05-25T05:02:41.884Z,8.285
2023-05-25T05:03:41.675Z,8.253
2023-05-25T05:04:41.186Z,8.239
2023-05-25T05:05:41.062Z,8.253
2023-05-25T05:06:40.849Z,8.313
2023-05-25T05:07:41.924Z,8.356
2023-05-25T05:08:41.615Z,8.361
2023-05-25T05:09:41.564Z,8.380
2023-05-25T05:10:41.763Z,8.413
2023-05-25T05:11:41.731Z,8.403
2023-05-25T05:12:41.497Z,8.433
2023-05-25T05:13:41.446Z,8.444
2023-05-25T05:14:41.222Z,8.463
2023-05-25T05:15:41.308Z,8.481
2023-05-25T05:16:41.425Z,8.520
2023-05-25T05:17:41.612Z,8.541
2023-05-25T05:18:41.580Z,8.576
2023-05-25T05:19:41.321Z,8.593
2023-05-25T05:20:41.523Z,8.595
2023-05-25T05:21:41.896Z,8.585
2023-05-25T05:22:41.248Z,8.604
2023-05-25T05:23:41.195Z,8.619
2023-05-25T05:24:40.761Z,8.653
2023-05-25T05:25:41.347Z,8.678
2023-05-25T05:26:56.287Z,8.693
2023-05-25T05:27:41.410Z,8.706
2023-05-25T05:28:41.175Z,8.726
2023-05-25T05:29:40.885Z,8.748
2023-05-25T05:30:41.816Z,8.761
2023-05-25T05:31:41.703Z,8.783
2023-05-25T05:32:41.734Z,8.805
2023-05-25T05:33:41.884Z,8.823
2023-05-25T05:34:41.955Z,8.854
2023-05-25T05:35:41.889Z,8.881
2023-05-25T05:36:55.895Z,8.903
2023-05-25T05:37:41.129Z,8.925
2023-05-25T05:38:41.228Z,8.931
2023-05-25T05:39:41.510Z,8.939
2023-05-25T05:40:41.616Z,8.946
2023-05-25T05:41:41.350Z,8.981
2023-05-25T05:42:41.157Z,8.989
2023-05-25T05:43:41.028Z,9.005
2023-05-25T05:44:45.022Z,9.041
2023-05-25T05:45:41.112Z,9.083
2023-05-25T05:46:41.208Z,9.103
2023-05-25T05:47:41.347Z,9.123
2023-05-25T05:48:41.656Z,9.130
2023-05-25T05:49:41.586Z,9.158
2023-05-25T05:50:42.376Z,9.183
2023-05-25T05:51:41.422Z,9.191
2023-05-25T05:52:41.749Z,9.218
2023-05-25T05:53:41.175Z,9.25
2023-05-25T05:54:41.334Z,9.274
2023-05-25T05:55:41.477Z,9.301
2023-05-25T05:56:41.424Z,9.318
2023-05-25T05:57:41.666Z,9.356
2023-05-25T05:58:41.514Z,9.381
2023-05-25T05:59:41.683Z,9.386
2023-05-25T06:00:42.850Z,9.411
2023-05-25T06:01:41.646Z,9.436
2023-05-25T06:02:42.144Z,9.456
2023-05-25T06:03:41.172Z,9.484
2023-05-25T06:04:41.389Z,9.531
2023-05-25T06:05:41.588Z,9.550
2023-05-25T06:06:41.822Z,9.555
2023-05-25T06:07:41.578Z,9.574
2023-05-25T06:08:41.544Z,9.604
2023-05-25T06:09:41.387Z,9.621
2023-05-25T06:10:41.510Z,9.638
2023-05-25T06:11:41.430Z,9.642
2023-05-25T06:12:41.535Z,9.667
2023-05-25T06:13:41.408Z,9.704
2023-05-25T06:14:44.510Z,9.773
2023-05-25T06:15:41.818Z,9.795
2023-05-25T06:16:42.131Z,9.801
2023-05-25T06:17:41.463Z,9.828
2023-05-25T06:18:41.783Z,9.832
2023-05-25T06:19:41.493Z,9.868
2023-05-25T06:20:41.638Z,9.914
2023-05-25T06:21:41.405Z,9.965
2023-05-25T06:22:41.667Z,10.00
2023-05-25T06:23:41.504Z,10.04
2023-05-25T06:24:41.239Z,10.08
2023-05-25T06:25:41.395Z,10.10
2023-05-25T06:26:41.527Z,10.13
2023-05-25T06:27:41.348Z,10.15
2023-05-25T06:28:41.093Z,10.19
2023-05-25T06:29:40.767Z,10.23
2023-05-25T06:30:41.964Z,10.27
2023-05-25T06:31:42.033Z,10.32
2023-05-25T06:32:41.292Z,10.35
2023-05-25T06:33:41.079Z,10.36
2023-05-25T06:34:41.413Z,10.40
2023-05-25T06:35:41.858Z,10.44
2023-05-25T06:36:41.762Z,10.47
2023-05-25T06:37:41.247Z,10.50
2023-05-25T06:38:41.362Z,10.55
2023-05-25T06:39:41.013Z,10.64
2023-05-25T06:40:41.128Z,10.71
2023-05-25T06:41:41.355Z,10.77
2023-05-25T06:42:41.324Z,10.82
2023-05-25T06:43:41.405Z,10.89
2023-05-25T06:44:41.301Z,10.94
2023-05-25T06:45:41.295Z,10.97
2023-05-25T06:46:41.639Z,11.00
2023-05-25T06:47:41.779Z,11.04
2023-05-25T06:48:41.751Z,11.09
2023-05-25T06:49:41.832Z,11.13
2023-05-25T06:50:41.805Z,11.18
2023-05-25T06:51:41.882Z,11.25
2023-05-25T06:52:41.959Z,11.26
2023-05-25T06:53:42.033Z,11.29
2023-05-25T06:54:41.151Z,11.30
2023-05-25T06:55:41.629Z,11.31
2023-05-25T06:56:41.748Z,11.34
2023-05-25T06:57:41.778Z,11.35
2023-05-25T06:58:41.671Z,11.34
2023-05-25T06:59:41.509Z,11.35
2023-05-25T07:00:44.098Z,11.38
2023-05-25T07:01:41.916Z,11.40
2023-05-25T07:02:42.313Z,11.46
2023-05-25T07:03:41.371Z,11.50
2023-05-25T07:04:41.226Z,11.52
2023-05-25T07:05:41.814Z,11.55
2023-05-25T07:06:41.473Z,11.64
2023-05-25T07:07:41.336Z,11.67
2023-05-25T07:08:41.062Z,11.70
2023-05-25T07:09:41.198Z,11.72
2023-05-25T07:10:41.740Z,11.69
2023-05-25T07:11:41.432Z,11.69
2023-05-25T07:12:41.709Z,11.77
2023-05-25T07:13:41.562Z,11.84
2023-05-25T07:14:41.425Z,11.87
2023-05-25T07:15:42.083Z,11.89
2023-05-25T07:16:41.757Z,11.87
2023-05-25T07:17:41.890Z,11.87
2023-05-25T07:18:41.835Z,11.86
2023-05-25T07:19:41.493Z,11.84
2023-05-25T07:20:41.965Z,11.85
2023-05-25T07:21:41.237Z,11.87
2023-05-25T07:22:41.377Z,11.87
2023-05-25T07:23:41.444Z,11.83
2023-05-25T07:24:41.902Z,11.85
2023-05-25T07:25:41.718Z,11.94
2023-05-25T07:26:41.872Z,12.01
2023-05-25T07:27:41.832Z,12.06
2023-05-25T07:28:41.907Z,12.11
2023-05-25T07:29:41.764Z,12.22
2023-05-25T07:30:42.079Z,12.24
2023-05-25T07:31:41.609Z,12.30
2023-05-25T07:32:41.897Z,12.30
2023-05-25T07:33:42.094Z,12.31
2023-05-25T07:34:43.926Z,12.37
2023-05-25T07:35:41.993Z,12.38
2023-05-25T07:36:41.565Z,12.43
2023-05-25T07:37:41.895Z,12.44
2023-05-25T07:38:41.897Z,12.46
2023-05-25T07:39:42.082Z,12.51
2023-05-25T07:40:41.376Z,12.55
2023-05-25T07:41:41.341Z,12.59
2023-05-25T07:42:41.322Z,12.64
2023-05-25T07:43:41.442Z,12.63
2023-05-25T07:44:41.497Z,12.63
2023-05-25T07:45:41.828Z,12.65
2023-05-25T07:46:41.846Z,12.65
2023-05-25T07:47:41.948Z,12.68
2023-05-25T07:48:42.008Z,12.72
2023-05-25T07:49:41.468Z,12.77
2023-05-25T07:50:42.201Z,12.77
2023-05-25T07:51:41.462Z,12.80
2023-05-25T07:52:41.629Z,12.84
2023-05-25T07:53:41.763Z,12.85
2023-05-25T07:54:41.991Z,12.88
2023-05-25T07:55:41.522Z,12.89
2023-05-25T07:56:41.690Z,12.87
2023-05-25T07:57:41.784Z,12.87
2023-05-25T07:58:41.368Z,12.91
2023-05-25T07:59:41.750Z,12.93
2023-05-25T08:00:42.688Z,12.93
2023-05-25T08:01:43.465Z,12.96
2023-05-25T08:02:41.933Z,12.98
2023-05-25T08:04:08.813Z,13.02
2023-05-25T08:04:44.826Z,13.05
2023-05-25T08:05:42.043Z,13.09
2023-05-25T08:06:41.230Z,13.04
2023-05-25T08:07:42.840Z,13.01
2023-05-25T08:08:40.575Z,13.04
2023-05-25T08:09:41.443Z,13.05
2023-05-25T08:10:41.501Z,12.98
2023-05-25T08:11:41.206Z,12.95
2023-05-25T08:12:49.520Z,12.92
2023-05-25T08:13:41.333Z,12.94
2023-05-25T08:14:41.348Z,13.03
2023-05-25T08:15:41.737Z,13.10
2023-05-25T08:16:41.787Z,13.14
2023-05-25T08:17:42.046Z,13.17
2023-05-25T08:18:41.532Z,13.22
2023-05-25T08:19:41.636Z,13.30
2023-05-25T08:20:41.896Z,13.42
2023-05-25T08:21:41.855Z,13.48
2023-05-25T08:22:41.582Z,13.47
2023-05-25T08:23:41.224Z,13.45
2023-05-25T08:24:41.302Z,13.49
2023-05-25T08:25:41.338Z,13.48
2023-05-25T08:27:02.121Z,13.46
2023-05-25T08:27:41.749Z,13.46
2023-05-25T08:28:41.995Z,13.49
2023-05-25T08:29:41.157Z,13.50
2023-05-25T08:30:41.412Z,13.46
2023-05-25T08:31:41.807Z,13.43
2023-05-25T08:32:42.448Z,13.45
2023-05-25T08:33:42.596Z,13.53
2023-05-25T08:34:41.873Z,13.55
2023-05-25T08:35:42.377Z,13.57
2023-05-25T08:36:41.619Z,13.61
2023-05-25T08:37:41.541Z,13.63
2023-05-25T08:38:41.587Z,13.66
2023-05-25T08:39:41.539Z,13.69
2023-05-25T08:40:41.911Z,13.77
2023-05-25T08:41:41.773Z,13.79
2023-05-25T08:42:41.730Z,13.77
2023-05-25T08:43:41.592Z,13.80
2023-05-25T08:44:41.395Z,13.80
2023-05-25T08:46:09.143Z,13.81
2023-05-25T08:46:45.137Z,13.85
2023-05-25T08:47:41.514Z,13.81
2023-05-25T08:48:56.741Z,13.79
2023-05-25T08:49:41.957Z,13.87
2023-05-25T08:50:41.483Z,13.98
2023-05-25T08:51:41.837Z,14.00
2023-05-25T08:52:41.610Z,14.06
2023-05-25T08:53:41.682Z,14.14
2023-05-25T08:54:41.602Z,14.25
2023-05-25T08:55:41.988Z,14.29
2023-05-25T08:56:41.219Z,14.40
2023-05-25T08:57:41.499Z,14.47
2023-05-25T08:58:41.589Z,14.49
2023-05-25T08:59:42.009Z,14.52
2023-05-25T09:00:42.014Z,14.52
2023-05-25T09:01:41.197Z,14.54
2023-05-25T09:02:41.392Z,14.65
2023-05-25T09:03:41.626Z,14.65
2023-05-25T09:04:41.550Z,14.65
2023-05-25T09:05:41.883Z,14.69
2023-05-25T09:06:40.988Z,14.70
2023-05-25T09:07:41.186Z,14.68
2023-05-25T09:08:41.285Z,14.64
2023-05-25T09:09:41.537Z,14.59
2023-05-25T09:10:41.780Z,14.60
2023-05-25T09:11:55.917Z,14.62
2023-05-25T09:12:42.579Z,14.62
2023-05-25T09:13:41.486Z,14.60
2023-05-25T09:14:41.342Z,14.57
2023-05-25T09:15:41.859Z,14.63
2023-05-25T09:16:41.923Z,14.66
2023-05-25T09:17:42.362Z,14.72
2023-05-25T09:18:41.620Z,14.83
2023-05-25T09:19:41.893Z,14.93
2023-05-25T09:20:45.111Z,15.02
2023-05-25T09:21:41.489Z,14.99
2023-05-25T09:22:41.258Z,15.00
2023-05-25T09:23:41.475Z,15.01
2023-05-25T09:24:41.819Z,14.97
2023-05-25T09:25:41.689Z,14.97
2023-05-25T09:26:41.701Z,14.97
2023-05-25T09:27:41.822Z,14.97
2023-05-25T09:28:43.941Z,14.97
2023-05-25T09:29:41.774Z,15.03
2023-05-25T09:30:42.299Z,15.07
2023-05-25T09:31:41.758Z,15.12
2023-05-25T09:32:42.135Z,15.14
2023-05-25T09:33:41.944Z,15.20
2023-05-25T09:34:42.071Z,15.21
2023-05-25T09:35:41.443Z,15.17
2023-05-25T09:36:41.963Z,15.09
2023-05-25T09:37:41.645Z,15.05
2023-05-25T09:38:42.377Z,15.04
2023-05-25T09:39:42.628Z,15.08
2023-05-25T09:40:42.201Z,15.11
2023-05-25T09:41:41.341Z,15.15
2023-05-25T09:42:41.492Z,15.15
2023-05-25T09:44:09.746Z,15.16
2023-05-25T09:44:41.776Z,15.21
2023-05-25T09:45:42.054Z,15.17
2023-05-25T09:46:41.496Z,15.18
2023-05-25T09:47:41.893Z,15.25
2023-05-25T09:48:41.209Z,15.24
2023-05-25T09:49:41.636Z,15.27
2023-05-25T09:50:41.686Z,15.33
2023-05-25T09:51:41.584Z,15.38
2023-05-25T09:52:41.604Z,15.48
2023-05-25T09:53:41.652Z,15.59
2023-05-25T09:54:41.673Z,15.63
2023-05-25T09:55:53.609Z,15.67
2023-05-25T09:56:41.453Z,15.71
2023-05-25T09:57:42.236Z,15.75
2023-05-25T09:58:42.361Z,15.77
2023-05-25T09:59:42.457Z,15.81
2023-05-25T10:00:43.661Z,15.83
2023-05-25T10:01:44.160Z,15.79
2023-05-25T10:02:41.952Z,15.81
2023-05-25T10:03:43.813Z,15.77
2023-05-25T10:04:41.981Z,15.75
2023-05-25T10:05:41.861Z,15.72
2023-05-25T10:06:42.119Z,15.68
2023-05-25T10:07:41.520Z,15.61
2023-05-25T10:08:45.440Z,15.55
2023-05-25T10:09:41.929Z,15.58
2023-05-25T10:10:42.207Z,15.58
2023-05-25T10:11:41.834Z,15.60
2023-05-25T10:12:41.854Z,15.65
2023-05-25T10:13:42.139Z,15.68
2023-05-25T10:14:45.404Z,15.66
2023-05-25T10:15:42.319Z,15.63
2023-05-25T10:16:42.376Z,15.61
2023-05-25T10:17:41.960Z,15.61
2023-05-25T10:18:42.070Z,15.62
2023-05-25T10:19:41.980Z,15.60
2023-05-25T10:20:45.769Z,15.56
2023-05-25T10:21:41.842Z,15.55
2023-05-25T10:22:41.906Z,15.58
2023-05-25T10:23:42.225Z,15.65
2023-05-25T10:24:41.836Z,15.72
2023-05-25T10:25:42.319Z,15.77
2023-05-25T10:26:41.918Z,15.74
2023-05-25T10:27:44.278Z,15.68
2023-05-25T10:28:41.954Z,15.69
2023-05-25T10:29:41.998Z,15.69
2023-05-25T10:30:41.648Z,15.75
2023-05-25T10:31:42.177Z,15.81
2023-05-25T10:32:41.810Z,15.85
2023-05-25T10:33:41.994Z,15.91
2023-05-25T10:34:41.510Z,15.95
2023-05-25T10:35:56.102Z,15.97
2023-05-25T10:36:42.211Z,15.98
2023-05-25T10:37:41.788Z,15.98
2023-05-25T10:38:42.170Z,16.04
2023-05-25T10:39:42.078Z,16.08
2023-05-25T10:40:41.748Z,16.20
2023-05-25T10:41:41.783Z,16.29
2023-05-25T10:42:41.996Z,16.29
2023-05-25T10:43:41.229Z,16.33
2023-05-25T10:44:41.604Z,16.30
2023-05-25T10:45:42.475Z,16.28
2023-05-25T10:46:42.037Z,16.29
2023-05-25T10:47:41.804Z,16.32
2023-05-25T10:48:41.934Z,16.37
2023-05-25T10:49:42.171Z,16.36
2023-05-25T10:50:41.149Z,16.30
2023-05-25T10:51:41.280Z,16.27
2023-05-25T10:52:41.288Z,16.34
2023-05-25T10:53:41.244Z,16.33
2023-05-25T10:54:41.413Z,16.36
2023-05-25T10:55:42.057Z,16.44
2023-05-25T10:56:41.323Z,16.47
2023-05-25T10:57:41.390Z,16.48
2023-05-25T10:58:41.601Z,16.48
2023-05-25T10:59:41.896Z,16.47
2023-05-25T11:00:43.287Z,16.50
2023-05-25T11:01:41.984Z,16.54
2023-05-25T11:02:41.421Z,16.59
2023-05-25T11:03:41.460Z,16.65
2023-05-25T11:04:42.062Z,16.64
2023-05-25T11:05:41.100Z,16.59
2023-05-25T11:06:41.189Z,16.60
2023-05-25T11:07:41.251Z,16.63
2023-05-25T11:08:41.677Z,16.66
2023-05-25T11:09:42.112Z,16.73
2023-05-25T11:10:41.452Z,16.77
2023-05-25T11:11:41.197Z,16.78
2023-05-25T11:12:41.107Z,16.75
2023-05-25T11:13:41.561Z,16.77
2023-05-25T11:14:41.541Z,16.79
2023-05-25T11:15:42.349Z,16.72
2023-05-25T11:16:42.324Z,16.59
2023-05-25T11:17:42.117Z,16.53
2023-05-25T11:18:41.676Z,16.61
2023-05-25T11:19:42.480Z,16.70
2023-05-25T11:20:42.525Z,16.72
2023-05-25T11:21:42.162Z,16.69
2023-05-25T11:22:41.163Z,16.68
2023-05-25T11:23:41.466Z,16.69
2023-05-25T11:24:41.636Z,16.70
2023-05-25T11:26:42.332Z,16.65
2023-05-25T11:27:42.229Z,16.63
2023-05-25T11:28:41.424Z,16.64
2023-05-25T11:29:41.587Z,16.72
2023-05-25T11:30:42.284Z,16.80
2023-05-25T11:31:43.745Z,16.89
2023-05-25T11:32:41.363Z,16.89
2023-05-25T11:33:41.679Z,16.86
2023-05-25T11:34:42.039Z,16.84
2023-05-25T11:35:41.329Z,16.79
2023-05-25T11:36:42.049Z,16.75
2023-05-25T11:37:41.746Z,16.74
2023-05-25T11:38:45.303Z,16.75
2023-05-25T11:39:41.483Z,16.78
2023-05-25T11:40:41.487Z,16.82
2023-05-25T11:41:41.920Z,16.92
2023-05-25T11:42:42.073Z,17.02
2023-05-25T11:43:41.394Z,17.13
2023-05-25T11:44:41.670Z,17.11
2023-05-25T11:45:42.028Z,17.06
2023-05-25T11:46:41.607Z,17.12
2023-05-25T11:47:41.729Z,17.15
2023-05-25T11:48:41.712Z,17.13
2023-05-25T11:49:42.189Z,17.10
2023-05-25T11:50:41.537Z,17.11
2023-05-25T11:51:41.921Z,17.08
2023-05-25T11:52:42.045Z,17.06
2023-05-25T11:53:41.264Z,16.99
2023-05-25T11:54:41.523Z,16.94
2023-05-25T11:55:42.029Z,16.96
2023-05-25T11:56:51.954Z,17.03
2023-05-25T11:57:42.258Z,17.10
2023-05-25T11:58:41.461Z,17.08
2023-05-25T11:59:45.522Z,17.09
2023-05-25T12:00:42.934Z,17.12
2023-05-25T12:01:41.812Z,17.11
2023-05-25T12:02:42.230Z,17.06
2023-05-25T12:03:41.942Z,17.06
2023-05-25T12:04:41.643Z,17.06
2023-05-25T12:05:42.078Z,17.10
2023-05-25T12:06:41.764Z,17.06
2023-05-25T12:07:42.039Z,17.10
2023-05-25T12:08:41.580Z,17.11
2023-05-25T12:09:41.549Z,17.19
2023-05-25T12:10:42.818Z,17.15
2023-05-25T12:11:42.439Z,17.14
2023-05-25T12:12:42.613Z,17.15
2023-05-25T12:13:42.727Z,17.17
2023-05-25T12:14:42.333Z,17.16
2023-05-25T12:15:41.992Z,17.16
2023-05-25T12:16:41.229Z,17.12
2023-05-25T12:17:41.452Z,17.11
2023-05-25T12:18:41.989Z,17.10
2023-05-25T12:19:41.029Z,17.11
2023-05-25T12:20:41.649Z,17.08
2023-05-25T12:21:42.093Z,17.10
2023-05-25T12:22:41.249Z,17.16
2023-05-25T12:23:41.375Z,17.14
2023-05-25T12:24:41.462Z,17.12
2023-05-25T12:25:50.251Z,17.14
2023-05-25T12:26:41.393Z,17.19
2023-05-25T12:27:41.164Z,17.24
2023-05-25T12:28:41.450Z,17.20
2023-05-25T12:29:41.654Z,17.26
2023-05-25T12:30:42.465Z,17.30
2023-05-25T12:31:42.015Z,17.35
2023-05-25T12:32:41.477Z,17.32
2023-05-25T12:33:41.666Z,17.32
2023-05-25T12:34:41.980Z,17.28
2023-05-25T12:35:42.365Z,17.34
2023-05-25T12:36:41.592Z,17.34
2023-05-25T12:37:41.506Z,17.38
2023-05-25T12:38:41.886Z,17.44
2023-05-25T12:39:41.819Z,17.45
2023-05-25T12:40:42.085Z,17.46
2023-05-25T12:41:41.150Z,17.47
2023-05-25T12:42:41.362Z,17.54
2023-05-25T12:43:41.491Z,17.61
2023-05-25T12:44:41.982Z,17.59
2023-05-25T12:45:41.858Z,17.62
2023-05-25T12:46:42.110Z,17.67
2023-05-25T12:47:41.819Z,17.77
2023-05-25T12:48:41.888Z,17.71
2023-05-25T12:49:41.483Z,17.71
2023-05-25T12:50:41.691Z,17.71
2023-05-25T12:51:42.023Z,17.72
2023-05-25T12:52:41.189Z,17.75
2023-05-25T12:53:41.301Z,17.73
2023-05-25T12:54:41.391Z,17.73